Time;durP1;ratioP1;P1;durP2;ratioP2;P2;SDS_P1;SDS_P2;PMS_P1;PMS_P2;Temp;Humidity;BMP_temperature;BMP_pressure;BME280_temperature;BME280_humidity;BME280_pressure;Samples;Min_cycle;Max_cycle;Signal;HPM_P1;HPM_P2
2021/12/05 00:19:36;;;;;;;;;;;;;;;16.78;64.36;97437.47;3144477;28;20052;-56
2021/12/05 00:23:14;;;;;;;3.20;1.58;;;;;;;16.77;64.74;97425.09;3149503;28;20048;-54
2021/12/05 00:24:57;;;;;;;7.30;1.25;;;;;;;16.74;64.77;97429.84;3151038;28;20069;-56
2021/12/05 00:26:35;;;;;;;1.85;1.20;;;;;;;16.74;64.77;97439.72;3150094;28;20107;-56
2021/12/05 00:28:34;;;;;;;2.47;1.40;;;;;;;16.73;64.87;97425.50;3149529;28;20040;-52
2021/12/05 00:30:27;;;;;;;3.03;1.95;;;;;;;16.71;65.02;97419.53;3150170;28;20059;-56
2021/12/05 00:36:46;;;;;;;6.18;1.27;;;;;;;16.68;65.30;97403.94;3138840;28;20048;-53
2021/12/05 00:42:46;;;;;;;1.17;0.80;;;;;;;16.63;65.53;97409.16;3148784;28;20044;-54
2021/12/05 00:50:40;;;;;;;4.00;1.08;;;;;;;16.62;66.04;97423.56;3126835;28;20217;-55
2021/12/05 00:52:42;;;;;;;4.60;1.20;;;;;;;16.59;66.22;97409.81;3146933;28;20074;-53
2021/12/05 00:56:23;;;;;;;4.97;1.70;;;;;;;16.55;66.50;97430.84;3148914;28;20813;-51
2021/12/05 01:00:08;;;;;;;4.20;1.38;;;;;;;16.53;66.46;97433.72;3145812;28;20040;-56
2021/12/05 01:03:54;;;;;;;1.20;0.82;;;;;;;16.48;66.52;97424.72;3148924;28;20075;-50
2021/12/05 01:07:55;;;;;;;4.45;1.15;;;;;;;16.46;66.64;97434.81;3145193;28;20044;-55
2021/12/05 01:11:41;;;;;;;4.43;1.20;;;;;;;16.43;66.51;97427.22;3145071;28;20340;-53
2021/12/05 01:13:34;;;;;;;2.90;1.10;;;;;;;16.40;66.79;97414.28;3148836;28;20053;-53
2021/12/05 01:15:10;;;;;;;4.25;1.55;;;;;;;16.40;66.68;97416.97;3145344;28;20123;-54
2021/12/05 01:16:49;;;;;;;2.05;1.23;;;;;;;16.38;66.57;97425.22;3147122;28;20496;-51
2021/12/05 01:18:25;;;;;;;6.07;1.80;;;;;;;16.40;66.42;97419.63;3148170;28;20044;-52
2021/12/05 01:20:05;;;;;;;2.78;1.38;;;;;;;16.39;66.44;97413.47;3147592;28;20047;-57
2021/12/05 01:21:40;;;;;;;1.65;1.30;;;;;;;16.39;66.36;97410.78;3145749;28;20128;-55
2021/12/05 01:23:25;;;;;;;1.55;1.27;;;;;;;16.38;66.18;97413.69;3142774;28;20067;-54
2021/12/05 01:25:07;;;;;;;2.05;1.00;;;;;;;16.37;66.55;97412.84;3147845;28;20076;-54
2021/12/05 01:26:48;;;;;;;2.10;1.00;;;;;;;16.36;66.51;97413.09;3144049;28;20048;-54
2021/12/05 01:28:34;;;;;;;1.90;1.30;;;;;;;16.35;66.25;97414.13;3146710;28;20048;-54
2021/12/05 01:30:16;;;;;;;5.10;1.40;;;;;;;16.33;66.64;97403.66;3147197;28;20036;-54
2021/12/05 01:32:08;;;;;;;2.70;1.33;;;;;;;16.32;66.44;97393.97;3146130;28;20052;-56
2021/12/05 01:33:54;;;;;;;3.50;2.17;;;;;;;16.29;66.30;97411.28;3147392;28;20051;-54
2021/12/05 01:35:50;;;;;;;6.50;1.25;;;;;;;16.29;66.44;97408.59;3144937;28;20314;-53
2021/12/05 01:37:31;;;;;;;1.65;0.75;;;;;;;16.27;66.36;97418.72;3146947;28;20071;-51
2021/12/05 01:39:23;;;;;;;3.47;1.38;;;;;;;16.27;66.31;97420.59;3141195;28;20040;-54
2021/12/05 01:54:33;;;;;;;2.92;1.08;;;;;;;16.15;66.33;97417.75;3120964;28;20063;-54
2021/12/05 01:56:33;;;;;;;2.85;1.52;;;;;;;16.15;66.25;97424.97;3143729;28;20313;-54
2021/12/05 01:58:22;;;;;;;1.27;1.02;;;;;;;16.13;66.19;97427.88;3145742;28;20047;-53
2021/12/05 02:00:13;;;;;;;4.10;1.73;;;;;;;16.12;66.31;97426.22;3145506;28;20044;-54
2021/12/05 02:09:27;;;;;;;3.33;1.95;;;;;;;16.06;66.13;97433.25;3146945;28;20036;-54
2021/12/05 02:33:49;;;;;;;1.63;1.00;;;;;;;15.96;65.97;97378.59;3147936;28;20051;-54
2021/12/05 02:35:36;;;;;;;8.45;1.38;;;;;;;15.94;66.07;97380.69;3146467;28;20517;-51
2021/12/05 02:37:21;;;;;;;2.88;0.80;;;;;;;15.92;65.94;97382.75;3145339;28;20040;-51
2021/12/05 02:41:08;;;;;;;2.78;0.80;;;;;;;15.91;66.12;97370.41;3142144;28;20135;-55
2021/12/05 02:42:49;;;;;;;2.92;0.63;;;;;;;15.91;66.09;97368.59;3145062;28;20044;-54
2021/12/05 02:44:33;;;;;;;1.03;0.80;;;;;;;15.90;65.92;97364.25;3143490;28;22930;-54
2021/12/05 02:46:07;;;;;;;2.22;1.23;;;;;;;15.88;66.02;97361.00;3145330;28;20309;-54
2021/12/05 02:47:47;;;;;;;4.50;1.05;;;;;;;15.87;66.01;97359.34;3145226;28;20136;-56
2021/12/05 02:49:29;;;;;;;1.95;0.85;;;;;;;15.88;66.13;97360.16;3140821;28;20111;-56
2021/12/05 02:51:10;;;;;;;2.78;0.90;;;;;;;15.86;66.05;97374.56;3146528;28;20777;-56
2021/12/05 02:53:08;;;;;;;2.03;1.75;;;;;;;15.84;66.17;97365.94;3146812;28;20053;-54
2021/12/05 02:54:48;;;;;;;2.90;0.90;;;;;;;15.83;66.04;97375.00;3144929;28;20048;-53
2021/12/05 02:56:23;;;;;;;2.78;2.20;;;;;;;15.83;66.02;97366.97;3145031;28;20508;-54
2021/12/05 02:58:14;;;;;;;1.80;0.82;;;;;;;15.82;66.05;97365.34;3148208;28;20044;-57
2021/12/05 02:59:52;;;;;;;1.88;1.10;;;;;;;15.83;66.13;97353.63;3148610;28;20071;-53
2021/12/05 03:01:38;;;;;;;3.28;1.17;;;;;;;15.86;66.25;97347.84;3147979;28;20078;-54
2021/12/05 03:03:19;;;;;;;1.67;1.13;;;;;;;15.86;66.25;97341.66;3149246;28;20079;-54
2021/12/05 03:05:00;;;;;;;3.47;1.63;;;;;;;15.86;66.16;97353.19;3140604;28;20386;-53
2021/12/05 03:06:52;;;;;;;2.47;0.98;;;;;;;15.87;66.59;97345.97;3145308;28;20048;-55
2021/12/05 03:08:24;;;;;;;1.20;1.00;;;;;;;15.86;66.67;97352.38;3148559;28;20098;-53
2021/12/05 03:10:11;;;;;;;3.35;1.30;;;;;;;15.85;66.66;97346.22;3147601;28;20064;-54
2021/12/05 03:11:45;;;;;;;2.10;1.10;;;;;;;15.86;66.79;97349.69;3147806;28;20140;-54
2021/12/05 03:13:28;;;;;;;2.53;1.33;;;;;;;15.85;66.88;97353.38;3147456;28;20051;-55
2021/12/05 03:15:13;;;;;;;3.60;1.02;;;;;;;15.84;66.73;97352.56;3150027;28;20075;-54
2021/12/05 03:16:47;;;;;;;5.25;1.55;;;;;;;15.82;66.65;97346.63;3148593;28;20123;-53
2021/12/05 03:18:20;;;;;;;5.30;1.63;;;;;;;15.84;66.73;97355.25;3153532;28;20048;-55
2021/12/05 03:20:00;;;;;;;3.20;1.10;;;;;;;15.82;66.74;97348.47;3148460;28;20044;-54
2021/12/05 03:21:41;;;;;;;2.95;0.95;;;;;;;15.82;66.61;97343.97;3148709;28;20045;-52
2021/12/05 03:23:39;;;;;;;3.42;0.88;;;;;;;15.82;66.58;97343.97;3152211;28;20054;-56
2021/12/05 03:25:14;;;;;;;3.38;1.58;;;;;;;15.83;66.96;97337.56;3150473;28;20071;-55
2021/12/05 03:27:03;;;;;;;2.63;0.90;;;;;;;15.83;66.68;97332.22;3148973;28;20524;-56
2021/12/05 03:28:36;;;;;;;3.03;0.90;;;;;;;15.83;66.77;97334.91;3151692;28;20059;-51
2021/12/05 03:30:24;;;;;;;2.22;0.65;;;;;;;15.82;66.59;97327.94;3150427;28;20225;-55
2021/12/05 03:32:01;;;;;;;2.80;1.23;;;;;;;15.81;66.73;97330.81;3148896;28;20245;-55
2021/12/05 03:33:39;;;;;;;2.30;1.45;;;;;;;15.79;66.61;97328.34;3146660;28;20048;-54
2021/12/05 03:35:14;;;;;;;3.75;1.00;;;;;;;15.81;66.58;97325.44;3149278;28;20048;-54
2021/12/05 03:37:10;;;;;;;4.35;1.45;;;;;;;15.79;66.52;97331.00;3150493;28;20036;-53
2021/12/05 03:38:48;;;;;;;1.55;0.98;;;;;;;15.79;66.37;97331.00;3146816;28;20200;-54
2021/12/05 03:40:25;;;;;;;1.33;0.93;;;;;;;15.79;66.29;97333.69;3148001;28;20062;-54
2021/12/05 03:41:58;;;;;;;2.42;0.77;;;;;;;15.78;66.43;97331.25;3146427;28;20052;-58
2021/12/05 03:43:33;;;;;;;2.95;1.00;;;;;;;15.78;66.34;97325.91;3148740;28;20048;-55
2021/12/05 03:45:10;;;;;;;3.95;0.82;;;;;;;15.77;66.44;97322.41;3145013;28;20067;-52
2021/12/05 03:48:38;;;;;;;2.90;1.00;;;;;;;15.77;66.46;97324.25;3147133;28;20056;-56
2021/12/05 03:50:14;;;;;;;2.33;0.80;;;;;;;15.76;66.35;97320.75;3143707;28;20945;-62
2021/12/05 03:51:49;;;;;;;6.82;1.88;;;;;;;15.76;66.36;97317.25;3145336;28;20137;-57
2021/12/05 03:53:25;;;;;;;3.17;0.80;;;;;;;15.75;66.30;97318.31;3143291;28;20083;-51
2021/12/05 03:55:04;;;;;;;2.97;1.42;;;;;;;15.74;66.38;97322.00;3146365;28;20044;-54
2021/12/05 03:56:45;;;;;;;3.53;0.90;;;;;;;15.72;66.15;97316.88;3148979;28;20036;-53
2021/12/05 03:58:19;;;;;;;2.38;0.90;;;;;;;15.73;66.35;97321.19;3141554;28;20048;-57
2021/12/05 03:59:56;;;;;;;5.25;0.90;;;;;;;15.72;66.40;97306.19;3145517;28;20131;-53
2021/12/05 04:01:31;;;;;;;7.82;1.13;;;;;;;15.72;66.35;97316.06;3145700;28;20090;-56
2021/12/05 04:03:09;;;;;;;4.70;0.82;;;;;;;15.70;66.51;97321.63;3145877;28;20054;-54
2021/12/05 04:04:42;;;;;;;5.45;1.10;;;;;;;15.72;66.23;97324.09;3146862;28;20097;-52
2021/12/05 04:06:20;;;;;;;1.58;0.93;;;;;;;15.71;66.18;97328.63;3143317;28;20062;-54
2021/12/05 04:07:52;;;;;;;5.45;1.13;;;;;;;15.70;66.17;97316.28;3147091;28;20819;-55
2021/12/05 04:09:27;;;;;;;2.03;0.82;;;;;;;15.70;66.34;97321.63;3141610;28;20040;-54
2021/12/05 04:11:12;;;;;;;2.40;0.75;;;;;;;15.68;66.17;97323.69;3145245;28;20524;-56
2021/12/05 04:12:48;;;;;;;1.85;0.90;;;;;;;15.68;66.37;97330.84;3149940;28;20143;-55
2021/12/05 04:14:24;;;;;;;3.22;2.00;;;;;;;15.68;66.42;97318.34;3143370;28;20081;-62
2021/12/05 04:16:00;;;;;;;3.25;1.00;;;;;;;15.69;66.27;97324.53;3144383;28;20056;-52
2021/12/05 04:17:40;;;;;;;1.63;0.77;;;;;;;15.67;66.32;97324.69;3144452;28;20079;-58
2021/12/05 04:19:22;;;;;;;3.67;0.85;;;;;;;15.67;66.22;97334.56;3146999;28;20047;-57
2021/12/05 04:20:57;;;;;;;2.90;0.88;;;;;;;15.65;66.34;97322.22;3147062;28;20052;-53
2021/12/05 04:22:30;;;;;;;2.25;1.25;;;;;;;15.66;66.32;97315.06;3146182;28;20083;-54
2021/12/05 04:24:07;;;;;;;1.48;0.80;;;;;;;15.65;66.42;97316.06;3147599;28;20052;-56
2021/12/05 04:25:47;;;;;;;2.47;0.63;;;;;;;15.65;66.30;97319.56;3148307;28;20048;-55
2021/12/05 04:27:24;;;;;;;4.40;0.80;;;;;;;15.65;66.32;97318.75;3147364;28;20040;-55
2021/12/05 04:29:10;;;;;;;2.72;1.02;;;;;;;15.65;66.14;97324.91;3146959;28;20040;-54
2021/12/05 04:30:44;;;;;;;2.70;0.93;;;;;;;15.66;66.20;97315.06;3144876;28;20692;-56
2021/12/05 04:32:20;;;;;;;4.90;1.00;;;;;;;15.64;66.35;97306.44;3147906;28;20052;-55
2021/12/05 04:33:54;;;;;;;3.75;1.75;;;;;;;15.63;66.17;97315.50;3144171;28;20386;-56
2021/12/05 04:35:29;;;;;;;5.95;1.00;;;;;;;15.63;66.24;97300.28;3145853;28;20109;-56
2021/12/05 04:37:04;;;;;;;2.80;0.65;;;;;;;15.62;66.45;97303.94;3145944;28;20051;-53
2021/12/05 04:38:36;;;;;;;1.85;0.70;;;;;;;15.62;66.41;97311.16;3145892;28;20157;-54
2021/12/05 04:42:03;;;;;;;1.17;0.70;;;;;;;15.60;66.32;97308.72;3146073;28;20052;-54
2021/12/05 04:43:38;;;;;;;4.72;1.33;;;;;;;15.61;66.29;97313.03;3143332;28;20072;-55
2021/12/05 04:45:14;;;;;;;2.03;0.90;;;;;;;15.61;66.39;97310.34;3145284;28;20062;-55
2021/12/05 04:46:47;;;;;;;1.55;0.95;;;;;;;15.63;66.26;97310.16;3145021;28;20067;-55
2021/12/05 04:48:22;;;;;;;1.63;0.80;;;;;;;15.64;66.45;97304.56;3142912;28;20105;-54
2021/12/05 04:49:54;;;;;;;4.75;1.42;;;;;;;15.65;66.61;97300.84;3144468;28;20037;-52
2021/12/05 04:51:31;;;;;;;5.22;0.93;;;;;;;15.70;66.71;97305.59;3145827;28;20052;-55
2021/12/05 04:53:03;;;;;;;5.50;0.82;;;;;;;15.73;66.41;97307.81;3142144;28;20041;-56
2021/12/05 04:54:37;;;;;;;3.92;1.25;;;;;;;15.73;66.48;97297.13;3142698;28;20144;-52
2021/12/05 04:56:10;;;;;;;1.42;1.05;;;;;;;15.75;66.52;97297.75;3145142;28;20064;-56
2021/12/05 04:57:43;;;;;;;1.33;0.93;;;;;;;15.77;66.63;97295.66;3145241;28;20513;-53
2021/12/05 04:59:18;;;;;;;3.75;1.23;;;;;;;15.77;66.91;97302.88;3145270;28;20051;-54
2021/12/05 05:00:54;;;;;;;5.55;0.82;;;;;;;15.77;66.77;97305.56;3143742;28;20063;-53
2021/12/05 05:02:26;;;;;;;3.80;0.88;;;;;;;15.78;66.76;97296.50;3142028;28;20209;-55
2021/12/05 05:04:02;;;;;;;1.60;0.90;;;;;;;15.79;66.64;97293.56;3143604;28;20079;-54
2021/12/05 05:05:45;;;;;;;3.67;1.05;;;;;;;15.80;66.61;97284.53;3145089;28;20053;-52
2021/12/05 05:07:25;;;;;;;4.72;1.48;;;;;;;15.82;66.73;97295.84;3144703;28;20904;-53
2021/12/05 05:08:57;;;;;;;2.08;0.55;;;;;;;15.89;66.87;97292.28;3142414;28;20060;-53
2021/12/05 05:10:33;;;;;;;4.20;0.90;;;;;;;15.93;66.37;97293.47;3144067;28;20049;-52
2021/12/05 05:12:05;;;;;;;4.10;1.15;;;;;;;15.97;65.97;97292.03;3145642;28;20105;-55
2021/12/05 05:13:39;;;;;;;3.55;1.38;;;;;;;16.00;65.50;97289.72;3145158;28;20059;-55
2021/12/05 05:15:21;;;;;;;3.25;1.13;;;;;;;16.03;65.59;97293.81;3146586;28;20056;-53
2021/12/05 05:17:04;;;;;;;5.80;0.98;;;;;;;16.07;65.46;97292.31;3148209;28;20044;-55
2021/12/05 05:18:43;;;;;;;3.90;1.10;;;;;;;16.11;65.56;97282.03;3140975;28;20044;-54
2021/12/05 05:20:22;;;;;;;1.35;1.23;;;;;;;16.12;65.27;97287.13;3144737;28;20033;-53
2021/12/05 05:22:03;;;;;;;4.07;1.08;;;;;;;16.16;65.13;97285.66;3146354;28;20059;-53
2021/12/05 05:23:47;;;;;;;3.47;0.85;;;;;;;16.20;64.84;97280.69;3142214;28;20136;-51
2021/12/05 05:29:50;;;;;;;1.95;0.80;;;;;;;16.30;64.61;97279.16;3108532;28;20075;-53
2021/12/05 05:39:36;;;;;;;3.63;0.70;;;;;;;16.49;64.26;97284.50;3145807;28;20652;-53
2021/12/05 05:46:56;;;;;;;4.53;1.33;;;;;;;16.58;64.06;97312.63;3137817;28;20097;-54
2021/12/05 05:48:49;;;;;;;3.42;0.50;;;;;;;16.60;64.36;97307.84;3147024;28;20048;-54
2021/12/05 05:50:32;;;;;;;1.63;0.80;;;;;;;16.61;64.18;97312.19;3143750;28;20398;-52
2021/12/05 05:52:06;;;;;;;1.92;0.60;;;;;;;16.63;64.10;97310.09;3145804;28;20131;-54
2021/12/05 05:53:39;;;;;;;1.85;0.63;;;;;;;16.64;63.84;97321.63;3145369;28;20044;-55
2021/12/05 05:55:12;;;;;;;9.20;1.50;;;;;;;16.65;63.66;97318.72;3147402;28;20044;-55
2021/12/05 05:56:46;;;;;;;2.25;1.02;;;;;;;16.67;63.93;97318.50;3147765;28;20074;-53
2021/12/05 05:58:25;;;;;;;1.35;0.57;;;;;;;16.66;63.99;97325.72;3147882;28;20050;-55
2021/12/05 06:00:07;;;;;;;3.92;0.80;;;;;;;16.68;64.22;97322.78;3149313;28;20047;-55
2021/12/05 06:01:58;;;;;;;3.42;1.05;;;;;;;16.68;63.81;97334.31;3140900;28;20048;-55
2021/12/05 06:03:32;;;;;;;2.95;1.10;;;;;;;16.69;64.12;97327.94;3143545;28;20048;-57
2021/12/05 06:05:07;;;;;;;3.38;0.70;;;;;;;16.70;63.96;97323.41;3143519;28;20297;-54
2021/12/05 06:06:43;;;;;;;1.27;0.45;;;;;;;16.71;63.46;97325.84;3144594;28;20085;-51
2021/12/05 06:08:16;;;;;;;1.50;0.55;;;;;;;16.73;63.73;97331.00;3149641;28;20605;-52
2021/12/05 06:09:52;;;;;;;5.13;1.05;;;;;;;16.74;63.86;97324.56;3145705;28;20040;-52
2021/12/05 06:11:25;;;;;;;3.47;0.90;;;;;;;16.77;63.72;97323.34;3144038;28;20051;-56
2021/12/05 06:13:03;;;;;;;2.88;1.13;;;;;;;16.79;63.65;97323.94;3146479;28;20481;-54
2021/12/05 06:14:40;;;;;;;3.17;1.00;;;;;;;16.80;63.58;97317.53;3143541;28;20106;-57
2021/12/05 06:16:18;;;;;;;2.40;1.50;;;;;;;16.81;63.67;97311.97;3147803;28;20052;-55
2021/12/05 06:17:55;;;;;;;3.53;0.63;;;;;;;16.81;63.46;97311.97;3145757;28;20048;-59
2021/12/05 06:19:33;;;;;;;1.08;0.60;;;;;;;16.83;63.65;97315.25;3145966;28;20119;-53
2021/12/05 06:21:06;;;;;;;3.92;0.68;;;;;;;16.84;63.65;97316.06;3147358;28;20044;-53
2021/12/05 06:22:41;;;;;;;2.30;1.05;;;;;;;16.85;63.61;97321.19;3146822;28;20650;-53
2021/12/05 06:24:13;;;;;;;3.08;1.13;;;;;;;16.85;63.20;97318.50;3146063;28;20052;-53
2021/12/05 06:25:52;;;;;;;4.18;0.98;;;;;;;16.87;63.60;97316.44;3144966;28;20056;-53
2021/12/05 06:27:25;;;;;;;1.85;0.90;;;;;;;16.87;63.60;97312.94;3145564;28;20481;-54
2021/12/05 06:29:06;;;;;;;4.20;1.13;;;;;;;16.87;63.68;97313.75;3148520;28;20047;-55
2021/12/05 06:30:47;;;;;;;4.35;0.77;;;;;;;16.88;63.58;97314.56;3146095;28;20047;-53
2021/12/05 06:38:08;;;;;;;3.03;0.90;;;;;;;16.89;63.13;97300.16;3145448;28;20041;-55
2021/12/05 06:39:46;;;;;;;4.18;1.55;;;;;;;16.90;63.28;97304.44;3145698;28;20052;-58
2021/12/05 06:41:23;;;;;;;2.03;0.77;;;;;;;16.90;63.76;97297.22;3147096;28;20481;-52
2021/12/05 06:43:02;;;;;;;3.80;0.65;;;;;;;16.89;63.68;97290.25;3144937;28;20051;-55
2021/12/05 06:46:29;;;;;;;3.63;0.95;;;;;;;16.90;63.16;97285.72;3145849;28;20045;-55
2021/12/05 06:48:07;;;;;;;7.78;1.00;;;;;;;16.91;63.38;97280.13;3143517;28;20041;-56
2021/12/05 06:49:42;;;;;;;1.55;0.40;;;;;;;16.93;63.01;97285.25;3149361;28;20044;-59
2021/12/05 06:51:19;;;;;;;1.08;0.60;;;;;;;16.94;63.09;97278.88;3150073;28;20048;-56
2021/12/05 06:52:55;;;;;;;1.90;0.85;;;;;;;16.95;63.14;97272.47;3145702;28;20048;-54
2021/12/05 06:54:28;;;;;;;1.55;0.63;;;;;;;16.95;63.04;97265.25;3150814;28;20083;-55
2021/12/05 06:56:01;;;;;;;0.73;0.50;;;;;;;16.97;63.11;97275.75;3153643;28;20052;-53
2021/12/05 06:57:34;;;;;;;1.63;0.60;;;;;;;16.98;62.83;97275.50;3152557;28;20048;-53
2021/12/05 06:59:07;;;;;;;1.38;0.63;;;;;;;16.98;63.13;97272.81;3151394;28;20491;-52
2021/12/05 07:00:41;;;;;;;3.42;0.70;;;;;;;17.00;63.15;97272.59;3148752;28;20052;-51
2021/12/05 07:02:18;;;;;;;3.13;0.70;;;;;;;17.01;63.42;97279.59;3154642;28;20055;-55
2021/12/05 07:03:51;;;;;;;2.10;0.95;;;;;;;17.02;63.24;97275.88;3150902;28;20249;-58
2021/12/05 07:07:24;;;;;;;1.05;0.75;;;;;;;17.05;62.93;97291.50;3148054;28;20055;-53
2021/12/05 07:09:04;;;;;;;1.80;0.70;;;;;;;17.05;62.93;97291.50;3144910;28;20118;-57
2021/12/05 07:10:46;;;;;;;3.50;0.82;;;;;;;17.07;62.96;97289.38;3149207;28;20382;-54
2021/12/05 07:16:22;;;;;;;6.60;1.13;;;;;;;17.11;62.80;97295.13;3130983;28;20103;-52
2021/12/05 07:19:58;;;;;;;2.47;0.90;;;;;;;17.13;62.62;97293.88;3148419;28;20044;-53
2021/12/05 07:21:42;;;;;;;1.73;0.60;;;;;;;17.17;62.85;97295.03;3147683;28;20044;-56
2021/12/05 07:23:37;;;;;;;3.15;0.40;;;;;;;17.18;62.86;97304.69;3146603;28;20094;-54
2021/12/05 07:25:13;;;;;;;2.88;1.08;;;;;;;17.19;62.69;97308.22;3147509;28;20041;-53
2021/12/05 07:27:07;;;;;;;0.63;0.47;;;;;;;17.20;62.92;97299.94;3144906;28;20063;-54
2021/12/05 07:41:49;;;;;;;4.45;1.20;;;;;;;17.26;63.04;97308.13;3147911;28;20040;-52
2021/12/05 07:43:22;;;;;;;3.47;0.60;;;;;;;17.26;63.27;97300.91;3145914;28;20056;-52
2021/12/05 07:45:02;;;;;;;5.78;1.20;;;;;;;17.28;63.54;97312.22;3150586;28;20123;-52
2021/12/05 07:46:37;;;;;;;3.45;0.80;;;;;;;17.27;63.26;97304.38;3147416;28;20513;-55
2021/12/05 07:48:15;;;;;;;1.83;1.05;;;;;;;17.28;63.40;97306.03;3145330;28;20200;-54
2021/12/05 07:49:49;;;;;;;1.45;0.80;;;;;;;17.27;63.61;97307.06;3147796;28;20242;-52
2021/12/05 07:51:28;;;;;;;7.35;0.75;;;;;;;17.27;63.35;97315.91;3144386;28;20048;-54
2021/12/05 07:53:07;;;;;;;1.23;0.50;;;;;;;17.28;63.65;97317.56;3144876;28;20051;-54
2021/12/05 07:54:44;;;;;;;2.00;0.90;;;;;;;17.28;63.59;97316.75;3145195;28;20055;-52
2021/12/05 07:56:28;;;;;;;1.60;0.70;;;;;;;17.26;63.70;97318.84;3147105;28;20051;-56
2021/12/05 07:58:12;;;;;;;5.10;1.20;;;;;;;17.27;63.79;97320.47;3151650;28;20048;-52
2021/12/05 07:59:57;;;;;;;2.58;0.93;;;;;;;17.27;63.98;97309.75;3148479;28;20142;-53
2021/12/05 08:14:37;;;;;;;5.93;1.83;;;;;;;17.29;64.48;97323.75;3146538;28;20048;-53
2021/12/05 08:16:13;;;;;;;2.60;0.82;;;;;;;17.27;64.41;97328.50;3146693;28;20135;-54
2021/12/05 08:17:52;;;;;;;2.95;1.00;;;;;;;17.26;64.65;97327.69;3148166;28;20864;-54
2021/12/05 08:19:24;;;;;;;11.15;1.30;;;;;;;17.27;64.56;97333.88;3147625;28;20406;-55
2021/12/05 08:21:11;;;;;;;4.20;1.42;;;;;;;17.26;64.63;97329.56;3152755;28;20066;-51
2021/12/05 08:22:45;;;;;;;8.23;1.38;;;;;;;17.30;64.82;97328.88;3148254;28;20056;-57
2021/12/05 08:24:20;;;;;;;6.45;2.70;;;;;;;17.30;64.54;97333.41;3144625;28;20074;-56
2021/12/05 08:26:03;;;;;;;5.57;1.40;;;;;;;17.31;64.95;97343.09;3148752;28;20079;-53
2021/12/05 08:27:38;;;;;;;9.60;1.27;;;;;;;17.29;65.09;97337.94;3149038;28;20486;-54
2021/12/05 08:29:19;;;;;;;5.55;0.88;;;;;;;17.28;65.08;97332.84;3147549;28;20080;-54
2021/12/05 08:31:04;;;;;;;2.65;0.70;;;;;;;17.28;65.01;97338.19;3145818;28;20040;-54
2021/12/05 08:32:49;;;;;;;6.47;1.30;;;;;;;17.28;64.67;97335.53;3149994;28;20111;-54
2021/12/05 08:34:42;;;;;;;5.47;1.20;;;;;;;17.29;64.08;97347.88;3141428;28;21196;-54
2021/12/05 08:36:38;;;;;;;7.45;1.10;;;;;;;17.28;63.69;97354.28;3144527;28;20043;-53
2021/12/05 08:39:07;;;;;;;1.58;0.80;;;;;;;17.27;63.40;97353.44;3144064;28;20445;-54
2021/12/05 08:41:25;;;;;;;4.25;0.77;;;;;;;17.25;63.06;97350.19;3147246;28;20207;-54
2021/12/05 10:03:23;;;;;;;14.38;2.08;;;;;;;17.02;64.31;97340.19;3843836;23;20108;-82
2021/12/05 10:11:41;;;;;;;8.60;1.88;;;;;;;17.01;64.85;97333.16;3882116;22;20024;-83
2021/12/05 10:13:27;;;;;;;13.32;1.30;;;;;;;17.03;64.82;97317.69;3892821;22;20099;-82
2021/12/05 10:15:24;;;;;;;5.45;1.60;;;;;;;17.03;64.94;97320.38;3892646;22;20077;-82
2021/12/05 10:17:26;;;;;;;4.85;1.00;;;;;;;17.00;64.95;97315.47;3890287;22;20075;-81
2021/12/05 10:19:35;;;;;;;4.18;1.33;;;;;;;16.98;64.92;97306.81;3890100;22;20095;-82
2021/12/05 10:36:27;;;;;;;5.00;1.30;;;;;;;16.89;65.02;97287.56;3885149;22;20027;-83
2021/12/05 10:38:11;;;;;;;11.02;1.88;;;;;;;16.90;65.02;97297.22;3893276;22;20019;-81
2021/12/05 10:39:47;;;;;;;4.30;1.15;;;;;;;16.90;64.90;97289.19;3889485;22;20031;-82
2021/12/05 10:41:47;;;;;;;6.45;1.42;;;;;;;16.92;64.88;97307.72;3887048;22;20422;-83
2021/12/05 10:43:54;;;;;;;3.97;1.35;;;;;;;16.92;64.70;97302.38;3894855;22;20055;-81
2021/12/05 10:45:51;;;;;;;8.73;1.20;;;;;;;16.91;64.62;97301.56;3894321;22;20030;-81
2021/12/05 10:48:17;;;;;;;5.57;1.77;;;;;;;16.92;64.56;97300.50;3887590;22;20074;-81
2021/12/05 10:50:19;;;;;;;7.30;1.40;;;;;;;16.90;64.68;97305.25;3823798;22;20459;-81
2021/12/05 10:59:56;;;;;;;1.85;1.35;;;;;;;16.93;65.35;97293.28;3891667;22;20879;-81
2021/12/05 11:03:48;;;;;;;5.53;2.13;;;;;;;16.96;66.31;97292.84;3858326;22;20028;-79
2021/12/05 11:07:40;;;;;;;6.72;2.42;;;;;;;16.81;66.95;97284.38;3865995;22;20169;-82
2021/12/05 11:09:27;;;;;;;5.68;1.38;;;;;;;16.78;66.94;97276.81;3887441;22;20121;-80
2021/12/05 11:11:20;;;;;;;6.97;1.58;;;;;;;16.78;66.72;97290.19;3890322;22;20110;-82
2021/12/05 11:13:03;;;;;;;5.43;1.63;;;;;;;16.74;66.47;97285.25;3888587;22;20023;-80
2021/12/05 11:15:01;;;;;;;5.10;1.73;;;;;;;16.73;66.56;97294.31;3894072;22;20016;-79
2021/12/05 11:16:57;;;;;;;3.95;2.10;;;;;;;16.72;66.40;97281.16;3883842;22;20039;-79
2021/12/05 11:18:55;;;;;;;7.10;2.05;;;;;;;16.70;66.36;97276.03;3889050;22;20510;-82
2021/12/05 11:20:41;;;;;;;2.30;1.27;;;;;;;16.65;66.22;97275.88;3895678;22;20020;-82
2021/12/05 11:22:39;;;;;;;10.10;2.10;;;;;;;16.67;66.07;97273.78;3892258;22;20030;-79
2021/12/05 11:24:32;;;;;;;4.50;1.42;;;;;;;16.64;66.04;97263.53;3887912;22;20072;-79
2021/12/05 11:26:22;;;;;;;8.30;1.70;;;;;;;16.64;65.87;97268.91;3889521;22;20031;-79
2021/12/05 11:28:11;;;;;;;2.70;1.20;;;;;;;16.64;66.00;97268.09;3890366;22;20036;-81
2021/12/05 11:30:02;;;;;;;4.40;1.50;;;;;;;16.62;65.83;97260.25;3896446;22;20015;-80
2021/12/05 11:31:54;;;;;;;2.45;1.20;;;;;;;16.61;65.75;97265.84;3895838;22;20192;-79
2021/12/05 11:33:28;;;;;;;;;;;;;;;16.60;65.66;97256.97;3896026;22;20362;-80
2021/12/05 11:35:35;;;;;;;;;;;;;;;;;;;;;
2021/12/05 11:37:14;;;;;;;4.70;1.20;;;;;;;16.56;65.84;97246.97;3896696;22;20374;-81
2021/12/05 11:39:02;;;;;;;10.35;1.30;;;;;;;16.56;65.61;97253.13;3887893;22;20047;-80
2021/12/05 11:40:58;;;;;;;2.95;1.30;;;;;;;16.53;65.46;97243.69;3897290;22;20047;-81
2021/12/05 11:43:02;;;;;;;5.05;1.48;;;;;;;16.53;65.44;97250.91;3890131;22;20625;-82
2021/12/05 11:45:08;;;;;;;3.03;1.23;;;;;;;16.51;65.46;97240.41;3889971;22;20027;-80
2021/12/05 11:48:50;;;;;;;2.78;1.02;;;;;;;16.47;65.33;97233.06;3888996;22;20020;-80
2021/12/05 11:50:43;;;;;;;4.38;1.13;;;;;;;16.47;65.35;97235.75;3890421;22;20024;-80
2021/12/05 11:52:46;;;;;;;4.63;1.35;;;;;;;16.44;65.37;97228.16;3889487;22;20347;-81
2021/12/05 11:54:26;;;;;;;6.82;1.70;;;;;;;16.45;65.26;97227.13;3889534;22;20533;-79
2021/12/05 11:56:06;;;;;;;3.35;1.15;;;;;;;16.42;65.33;97224.88;3887755;22;20490;-78
2021/12/05 11:57:51;;;;;;;4.35;1.10;;;;;;;16.41;65.16;97216.06;3889736;22;20024;-80
2021/12/05 11:59:32;;;;;;;4.63;1.77;;;;;;;16.43;65.24;97213.13;3896812;22;20023;-82
2021/12/05 12:01:29;;;;;;;2.67;1.45;;;;;;;16.40;64.99;97209.03;3896593;22;20077;-79
2021/12/05 12:03:02;;;;;;;7.82;1.48;;;;;;;16.39;65.19;97202.06;3890152;22;20055;-81
2021/12/05 12:04:48;;;;;;;3.28;1.15;;;;;;;16.37;64.98;97197.97;3888667;22;20024;-81
2021/12/05 12:06:33;;;;;;;5.82;1.10;;;;;;;16.38;65.07;97195.09;3896216;22;20483;-82
2021/12/05 12:08:08;;;;;;;3.17;1.65;;;;;;;16.36;64.79;97196.34;3896847;22;20722;-79
2021/12/05 12:09:48;;;;;;;3.80;1.00;;;;;;;16.35;65.03;97195.50;3894489;22;20073;-81
2021/12/05 12:11:31;;;;;;;4.18;1.65;;;;;;;16.36;65.05;97196.34;3896219;22;20019;-80
2021/12/05 12:13:15;;;;;;;2.25;0.80;;;;;;;16.35;64.95;97195.50;3896354;22;20610;-81
2021/12/05 12:15:02;;;;;;;6.35;1.50;;;;;;;16.34;65.05;97196.56;3896737;22;20083;-80
2021/12/05 12:16:51;;;;;;;5.53;0.93;;;;;;;16.35;64.97;97192.03;3891491;22;20027;-81
2021/12/05 12:18:34;;;;;;;4.93;1.00;;;;;;;16.33;64.94;97199.47;3887190;22;20028;-80
2021/12/05 12:20:12;;;;;;;2.33;1.73;;;;;;;16.33;64.95;97200.28;3896246;22;20046;-82
2021/12/05 12:22:02;;;;;;;;;;;;;;;;;;;;;
2021/12/05 12:23:49;;;;;;;2.92;1.52;;;;;;;16.32;65.00;97187.94;3895879;22;20105;-83
2021/12/05 12:25:42;;;;;;;2.05;0.73;;;;;;;16.30;64.93;97182.81;3895608;22;20073;-81
2021/12/05 12:27:26;;;;;;;4.45;1.10;;;;;;;16.29;64.73;97183.84;3889532;22;20110;-81
2021/12/05 12:29:17;;;;;;;4.85;1.13;;;;;;;16.30;64.87;97177.47;3896456;22;20032;-83
2021/12/05 12:31:11;;;;;;;2.45;0.98;;;;;;;16.30;64.87;97182.81;3896201;22;20027;-79
2021/12/05 12:32:55;;;;;;;2.38;1.10;;;;;;;16.31;64.81;97183.63;3889718;22;20046;-81
2021/12/05 12:34:35;;;;;;;3.72;1.00;;;;;;;16.29;64.69;97183.84;3896517;22;20012;-81